createdAt,value
2022-11-16T00:01:02.138Z,3.93
2022-11-16T00:06:02.120Z,3.81
2022-11-16T00:11:02.155Z,3.75
2022-11-16T00:16:02.136Z,3.62
2022-11-16T00:21:02.151Z,3.5
2022-11-16T00:26:02.139Z,3.43
2022-11-16T00:31:02.124Z,3.43
2022-11-16T00:36:02.112Z,3.43
2022-11-16T00:41:02.133Z,3.37
2022-11-16T00:46:02.122Z,3.43
2022-11-16T00:51:02.137Z,3.5
2022-11-16T00:56:02.100Z,3.5
2022-11-16T01:01:02.267Z,3.43
2022-11-16T01:06:02.101Z,3.37
2022-11-16T01:11:02.109Z,3.37
2022-11-16T01:16:02.083Z,3.43
2022-11-16T01:21:02.079Z,3.43
2022-11-16T01:26:02.082Z,3.56
2022-11-16T01:31:02.087Z,3.62
2022-11-16T01:36:02.075Z,3.62
2022-11-16T01:41:02.059Z,3.68
2022-11-16T01:46:02.093Z,3.75
2022-11-16T01:51:02.091Z,3.81
2022-11-16T01:56:02.054Z,3.75
2022-11-16T02:01:02.087Z,3.68
2022-11-16T02:06:02.038Z,3.62
2022-11-16T02:26:02.045Z,3.5
2022-11-16T02:31:02.048Z,3.5
2022-11-16T02:36:02.044Z,3.43
2022-11-16T02:56:02.019Z,3.5
2022-11-16T03:06:02.024Z,3.5
2022-11-16T03:11:02.032Z,3.5
2022-11-16T03:16:02.012Z,3.56
2022-11-16T03:21:02.014Z,3.68
2022-11-16T03:26:02.014Z,3.68
2022-11-16T03:31:01.991Z,3.81
2022-11-16T03:36:01.997Z,3.93
2022-11-16T03:41:02.002Z,4
2022-11-16T03:46:01.995Z,3.93
2022-11-16T03:51:01.985Z,3.87
2022-11-16T03:56:01.967Z,3.93
2022-11-16T04:01:02.005Z,4.06
2022-11-16T04:06:01.977Z,3.81
2022-11-16T04:11:01.967Z,3.81
2022-11-16T04:16:01.963Z,4.06
2022-11-16T04:21:01.964Z,3.93
2022-11-16T04:26:01.969Z,4.06
2022-11-16T04:31:01.969Z,4.18
2022-11-16T04:36:01.963Z,4.43
2022-11-16T04:41:01.961Z,4.5
2022-11-16T04:46:01.965Z,4.37
2022-11-16T04:51:01.940Z,4.5
2022-11-16T04:56:01.930Z,4.43
2022-11-16T05:01:02.010Z,4.18
2022-11-16T05:06:01.929Z,4.37
2022-11-16T05:11:01.943Z,4.43
2022-11-16T05:16:01.921Z,4.06
2022-11-16T05:21:01.911Z,4.25
2022-11-16T05:26:01.916Z,4.37
2022-11-16T05:31:01.912Z,4.12
2022-11-16T05:36:01.919Z,4.06
2022-11-16T05:41:01.923Z,4.06
2022-11-16T05:46:01.947Z,4.18
2022-11-16T05:51:01.897Z,4.56
2022-11-16T05:56:01.952Z,4.37
2022-11-16T06:01:01.925Z,4.81
2022-11-16T06:06:01.905Z,4.75
2022-11-16T06:11:01.896Z,4.5
2022-11-16T06:16:01.889Z,4.37
2022-11-16T06:21:01.886Z,4.5
2022-11-16T06:26:01.882Z,4.56
2022-11-16T06:31:01.904Z,4.43
2022-11-16T06:36:01.933Z,4.5
2022-11-16T06:41:01.864Z,4.62
2022-11-16T06:46:01.862Z,4.43
2022-11-16T06:51:01.849Z,4.5
2022-11-16T06:56:01.881Z,4.5
2022-11-16T07:01:01.847Z,4.62
2022-11-16T07:06:01.855Z,4.25
2022-11-16T07:11:04.245Z,4.31
2022-11-16T07:16:01.857Z,4.43
2022-11-16T07:21:01.833Z,4.31
2022-11-16T07:26:01.832Z,4.31
2022-11-16T07:31:01.858Z,4.56
2022-11-16T07:36:01.853Z,4.62
2022-11-16T07:41:01.825Z,4.62
2022-11-16T07:46:21.513Z,4.5
2022-11-16T07:51:01.828Z,4.43
2022-11-16T07:56:01.813Z,4.43
2022-11-16T08:01:01.824Z,4.75
2022-11-16T08:06:01.917Z,4.56
2022-11-16T08:11:01.804Z,4.87
2022-11-16T08:16:01.806Z,5.5
2022-11-16T08:21:01.805Z,4.87
2022-11-16T08:26:01.788Z,5.43
2022-11-16T08:31:01.797Z,5
2022-11-16T08:36:01.797Z,5.31
2022-11-16T08:41:01.816Z,4.87
2022-11-16T08:46:01.775Z,5.06
2022-11-16T08:51:16.784Z,4.93
2022-11-16T08:56:01.765Z,5.31
2022-11-16T09:01:01.900Z,5.37
2022-11-16T09:06:01.797Z,5
2022-11-16T09:11:01.775Z,5.31
2022-11-16T09:16:01.788Z,5.31
2022-11-16T09:21:01.751Z,5.5
2022-11-16T09:26:01.756Z,5.43
2022-11-16T09:31:01.769Z,5.62
2022-11-16T09:36:01.765Z,5.56
2022-11-16T09:41:01.759Z,5.62
2022-11-16T09:46:01.773Z,5.81
2022-11-16T09:51:01.780Z,5.68
2022-11-16T09:56:01.722Z,5.81
2022-11-16T10:01:01.800Z,6
2022-11-16T10:06:01.716Z,5.87
2022-11-16T10:11:01.725Z,5.93
2022-11-16T10:16:01.697Z,6.43
2022-11-16T10:21:01.702Z,6.06
2022-11-16T10:26:01.705Z,6.37
2022-11-16T10:31:01.699Z,6.18
2022-11-16T10:36:01.702Z,6.68
2022-11-16T10:41:01.675Z,6.93
2022-11-16T10:46:01.673Z,7.75
2022-11-16T10:51:01.688Z,7.5
2022-11-16T10:56:01.663Z,7.31
2022-11-16T11:01:01.703Z,7.62
2022-11-16T11:06:01.672Z,7.5
2022-11-16T11:11:01.693Z,7.68
2022-11-16T11:16:01.670Z,7.62
2022-11-16T11:21:01.672Z,7.5
2022-11-16T11:26:01.646Z,7.5
2022-11-16T11:31:01.642Z,7.81
2022-11-16T11:36:01.642Z,7.81
2022-11-16T11:41:01.626Z,8.06
2022-11-16T11:46:01.630Z,8.18
2022-11-16T11:51:01.633Z,8.31
2022-11-16T11:56:01.623Z,8.56
2022-11-16T12:01:01.615Z,8.81
2022-11-16T12:06:01.617Z,8.62
2022-11-16T12:11:01.612Z,8.81
2022-11-16T12:16:01.608Z,8.81
2022-11-16T12:21:01.596Z,8.93
2022-11-16T12:26:01.763Z,8.87
2022-11-16T12:31:01.588Z,9.06
2022-11-16T12:36:01.600Z,8.93
2022-11-16T12:41:01.573Z,9.25
2022-11-16T12:46:01.570Z,9.43
2022-11-16T12:51:01.576Z,9.31
2022-11-16T12:56:01.581Z,9.18
2022-11-16T13:01:01.593Z,9.12
2022-11-16T13:06:01.559Z,9.18
2022-11-16T13:11:01.547Z,8.93
2022-11-16T13:16:01.559Z,9.12
2022-11-16T13:21:01.542Z,8.87
2022-11-16T13:26:01.556Z,9.25
2022-11-16T13:31:01.544Z,9.06
2022-11-16T13:36:01.524Z,8.87
2022-11-16T13:41:01.525Z,8.87
2022-11-16T13:46:01.515Z,8.68
2022-11-16T13:51:01.509Z,8.62
2022-11-16T13:56:01.533Z,8.56
2022-11-16T14:01:01.572Z,8.56
2022-11-16T14:06:01.489Z,8.56
2022-11-16T14:11:01.488Z,8.75
2022-11-16T14:16:01.492Z,8.62
2022-11-16T14:21:01.465Z,8.5
2022-11-16T14:26:01.482Z,8.5
2022-11-16T14:31:01.488Z,8.5
2022-11-16T14:36:01.462Z,8.31
2022-11-16T14:41:01.474Z,8.56
2022-11-16T14:46:01.544Z,8.43
2022-11-16T14:51:01.450Z,8.43
2022-11-16T14:56:01.441Z,8.12
2022-11-16T15:01:01.469Z,8.06
2022-11-16T15:06:01.423Z,7.93
2022-11-16T15:11:01.429Z,7.68
2022-11-16T15:16:01.433Z,7.68
2022-11-16T15:21:01.447Z,7.81
2022-11-16T15:26:01.440Z,7.56
2022-11-16T15:31:01.436Z,7.31
2022-11-16T15:36:01.408Z,7.18
2022-11-16T15:41:01.408Z,7.06
2022-11-16T15:46:01.387Z,7.18
2022-11-16T15:51:04.397Z,7.06
2022-11-16T15:56:01.487Z,7.12
2022-11-16T16:01:01.465Z,6.93
2022-11-16T16:06:01.387Z,6.87
2022-11-16T16:11:01.367Z,6.75
2022-11-16T16:16:01.373Z,6.75
2022-11-16T16:21:01.362Z,6.62
2022-11-16T16:26:01.432Z,6.56
2022-11-16T16:31:01.371Z,6.68
2022-11-16T16:36:01.345Z,6.81
2022-11-16T16:41:01.450Z,6.31
2022-11-16T16:46:01.329Z,6.12
2022-11-16T16:51:01.353Z,5.62
2022-11-16T16:56:01.340Z,5.5
2022-11-16T17:01:01.763Z,5.62
2022-11-16T17:06:01.337Z,5.5
2022-11-16T17:36:01.305Z,5.25
2022-11-16T17:56:01.294Z,4.93
2022-11-16T18:01:01.339Z,4.68
2022-11-16T18:06:01.277Z,4.68
2022-11-16T18:11:01.291Z,4.68
2022-11-16T18:16:01.270Z,4.62
2022-11-16T18:26:01.363Z,4.56
2022-11-16T18:31:01.284Z,4.31
2022-11-16T18:36:01.276Z,4.56
2022-11-16T18:41:01.286Z,4.12
2022-11-16T18:46:01.271Z,4.43
2022-11-16T18:51:01.251Z,4.18
2022-11-16T18:56:01.243Z,4
2022-11-16T19:01:01.376Z,3.81
2022-11-16T19:06:01.239Z,3.87
2022-11-16T19:11:01.248Z,3.93
2022-11-16T19:16:01.268Z,3.81
2022-11-16T19:21:01.246Z,3.81
2022-11-16T19:26:01.247Z,3.43
2022-11-16T19:31:01.221Z,3.37
2022-11-16T19:36:01.212Z,3.56
2022-11-16T19:41:01.228Z,3.37
2022-11-16T19:46:01.243Z,3.75
2022-11-16T19:51:01.232Z,3.93
2022-11-16T19:56:01.210Z,3.62
2022-11-16T20:01:01.250Z,3.56
2022-11-16T20:06:01.203Z,3.81
2022-11-16T20:11:01.215Z,3.75
2022-11-16T20:16:01.213Z,3.62
2022-11-16T20:21:01.187Z,3.56
2022-11-16T20:26:01.179Z,3.5
2022-11-16T20:31:01.178Z,3.37
2022-11-16T20:36:01.204Z,3.5
2022-11-16T20:41:01.182Z,3.18
2022-11-16T20:46:01.191Z,3
2022-11-16T20:51:01.167Z,3
2022-11-16T20:56:01.163Z,2.75
2022-11-16T21:01:01.233Z,2.62
2022-11-16T21:06:01.172Z,2.87
2022-11-16T21:11:01.147Z,2.62
2022-11-16T21:16:01.290Z,2.31
2022-11-16T21:21:01.153Z,2.62
2022-11-16T21:26:01.160Z,2.75
2022-11-16T21:36:01.138Z,2.31
2022-11-16T21:41:01.152Z,2.68
2022-11-16T21:46:01.144Z,2.43
2022-11-16T21:51:01.165Z,2.37
2022-11-16T21:56:01.157Z,2.31
2022-11-16T22:01:01.183Z,2.68
2022-11-16T22:06:01.144Z,2.5
2022-11-16T22:11:01.136Z,2.37
2022-11-16T22:16:01.140Z,2
2022-11-16T22:21:01.124Z,1.68
2022-11-16T22:26:01.137Z,2.12
2022-11-16T22:31:01.132Z,2.37
2022-11-16T22:36:01.111Z,2.62
2022-11-16T22:41:01.126Z,2.5
2022-11-16T22:46:01.124Z,2.56
2022-11-16T22:51:01.122Z,2.43
2022-11-16T22:56:01.110Z,2.68
2022-11-16T23:16:01.140Z,2.25
2022-11-16T23:21:01.087Z,2.06
2022-11-16T23:26:01.093Z,2.06
2022-11-16T23:31:01.098Z,2.12
2022-11-16T23:36:01.084Z,2.68
2022-11-16T23:41:01.106Z,2.37
2022-11-16T23:46:01.077Z,2.75
2022-11-16T23:51:01.084Z,2.62
2022-11-16T23:56:05.422Z,3
